sensor_id;sensor_type;location;lat;lon;timestamp;pressure;altitude;pressure_sealevel;temperature;humidity
30073;BME280;16897;52.422;13.678;2022-12-05T00:00:18;101507.97;;;5.89;65.34
30073;BME280;16897;52.422;13.678;2022-12-05T00:04:20;101508.81;;;5.89;65.35
30073;BME280;16897;52.422;13.678;2022-12-05T00:08:22;101499.28;;;5.91;65.39
30073;BME280;16897;52.422;13.678;2022-12-05T00:12:24;101492.34;;;5.92;65.49
30073;BME280;16897;52.422;13.678;2022-12-05T00:16:29;101497.53;;;5.92;65.56
30073;BME280;16897;52.422;13.678;2022-12-05T00:20:31;101481.22;;;5.87;65.46
30073;BME280;16897;52.422;13.678;2022-12-05T00:24:33;101483.75;;;5.90;65.45
30073;BME280;16897;52.422;13.678;2022-12-05T00:28:35;101490.59;;;5.94;65.27
30073;BME280;16897;52.422;13.678;2022-12-05T00:32:37;101501.78;;;5.96;65.33
30073;BME280;16897;52.422;13.678;2022-12-05T00:36:39;101495.75;;;5.94;65.53
30073;BME280;16897;52.422;13.678;2022-12-05T00:40:41;101507.69;;;6.01;65.32
30073;BME280;16897;52.422;13.678;2022-12-05T00:44:43;101503.38;;;6.02;65.47
30073;BME280;16897;52.422;13.678;2022-12-05T00:48:46;101506.00;;;6.00;65.34
30073;BME280;16897;52.422;13.678;2022-12-05T00:52:47;101494.06;;;5.94;65.51
30073;BME280;16897;52.422;13.678;2022-12-05T00:56:49;101470.88;;;5.87;65.56
30073;BME280;16897;52.422;13.678;2022-12-05T01:00:53;101501.63;;;6.02;65.51
30073;BME280;16897;52.422;13.678;2022-12-05T01:04:55;101462.44;;;5.77;65.49
30073;BME280;16897;52.422;13.678;2022-12-05T01:08:57;101452.88;;;5.81;65.35
30073;BME280;16897;52.422;13.678;2022-12-05T01:12:59;101500.59;;;6.09;65.40
30073;BME280;16897;52.422;13.678;2022-12-05T01:17:01;101479.28;;;5.96;65.47
30073;BME280;16897;52.422;13.678;2022-12-05T01:21:04;101492.16;;;6.01;65.29
30073;BME280;16897;52.422;13.678;2022-12-05T01:25:06;101499.84;;;6.04;65.54
30073;BME280;16897;52.422;13.678;2022-12-05T01:29:11;101503.19;;;6.09;65.54
30073;BME280;16897;52.422;13.678;2022-12-05T01:33:15;101500.56;;;6.11;65.46
30073;BME280;16897;52.422;13.678;2022-12-05T01:37:17;101492.75;;;6.12;65.44
30073;BME280;16897;52.422;13.678;2022-12-05T01:41:34;101490.22;;;6.09;65.33
30073;BME280;16897;52.422;13.678;2022-12-05T01:45:40;101497.06;;;6.13;65.40
30073;BME280;16897;52.422;13.678;2022-12-05T01:49:42;101479.00;;;6.09;65.40
30073;BME280;16897;52.422;13.678;2022-12-05T01:53:43;101497.97;;;6.11;65.70
30073;BME280;16897;52.422;13.678;2022-12-05T01:57:47;101461.97;;;5.98;65.44
30073;BME280;16897;52.422;13.678;2022-12-05T02:01:49;101482.41;;;6.11;65.44
30073;BME280;16897;52.422;13.678;2022-12-05T02:05:54;101483.34;;;6.08;65.35
30073;BME280;16897;52.422;13.678;2022-12-05T02:09:57;101484.97;;;6.12;65.56
30073;BME280;16897;52.422;13.678;2022-12-05T02:14:12;101490.94;;;6.16;65.60
30073;BME280;16897;52.422;13.678;2022-12-05T02:19:30;101497.06;;;6.13;65.31
30073;BME280;16897;52.422;13.678;2022-12-05T02:23:51;101463.72;;;5.96;65.55
30073;BME280;16897;52.422;13.678;2022-12-05T02:32:41;101487.47;;;6.15;65.63
30073;BME280;16897;52.422;13.678;2022-12-05T02:37:02;101491.78;;;6.16;65.42
30073;BME280;16897;52.422;13.678;2022-12-05T02:41:32;101478.00;;;6.14;65.54
30073;BME280;16897;52.422;13.678;2022-12-05T02:45:36;101475.41;;;6.14;65.62
30073;BME280;16897;52.422;13.678;2022-12-05T02:49:40;101466.00;;;6.10;65.48
30073;BME280;16897;52.422;13.678;2022-12-05T02:53:43;101460.00;;;6.08;65.40
30073;BME280;16897;52.422;13.678;2022-12-05T02:57:52;101456.50;;;6.11;65.42
30073;BME280;16897;52.422;13.678;2022-12-05T03:01:55;101444.47;;;6.07;65.48
30073;BME280;16897;52.422;13.678;2022-12-05T03:10:10;101448.75;;;6.09;65.49
30073;BME280;16897;52.422;13.678;2022-12-05T03:14:21;101464.09;;;6.18;65.47
30073;BME280;16897;52.422;13.678;2022-12-05T03:18:32;101456.34;;;6.15;65.61
30073;BME280;16897;52.422;13.678;2022-12-05T03:23:00;101459.00;;;6.14;65.57
30073;BME280;16897;52.422;13.678;2022-12-05T03:27:32;101448.81;;;6.06;65.59
30073;BME280;16897;52.422;13.678;2022-12-05T03:36:11;101462.53;;;6.11;65.61
30073;BME280;16897;52.422;13.678;2022-12-05T03:40:34;101467.59;;;6.16;65.64
30073;BME280;16897;52.422;13.678;2022-12-05T03:45:02;101457.41;;;6.08;65.68
30073;BME280;16897;52.422;13.678;2022-12-05T03:54:16;101454.69;;;6.13;65.62
30073;BME280;16897;52.422;13.678;2022-12-05T03:58:27;101453.00;;;6.12;65.54
30073;BME280;16897;52.422;13.678;2022-12-05T04:06:56;101457.25;;;6.14;65.55
30073;BME280;16897;52.422;13.678;2022-12-05T04:11:08;101455.56;;;6.13;65.47
30073;BME280;16897;52.422;13.678;2022-12-05T04:15:19;101459.84;;;6.14;65.60
30073;BME280;16897;52.422;13.678;2022-12-05T04:19:28;101467.47;;;6.20;65.52
30073;BME280;16897;52.422;13.678;2022-12-05T04:23:54;101451.16;;;6.15;65.51
30073;BME280;16897;52.422;13.678;2022-12-05T04:29:02;101454.69;;;6.13;65.65
30073;BME280;16897;52.422;13.678;2022-12-05T04:33:40;101464.00;;;6.22;65.60
30073;BME280;16897;52.422;13.678;2022-12-05T04:37:47;101446.91;;;6.13;65.55
30073;BME280;16897;52.422;13.678;2022-12-05T04:46:34;101459.56;;;6.27;65.73
30073;BME280;16897;52.422;13.678;2022-12-05T04:50:39;101452.81;;;6.19;65.57
30073;BME280;16897;52.422;13.678;2022-12-05T04:54:54;101458.75;;;6.23;65.37
30073;BME280;16897;52.422;13.678;2022-12-05T04:58:57;101464.00;;;6.22;65.73
30073;BME280;16897;52.422;13.678;2022-12-05T05:03:26;101467.38;;;6.24;65.63
30073;BME280;16897;52.422;13.678;2022-12-05T05:07:30;101451.13;;;6.18;65.71
30073;BME280;16897;52.422;13.678;2022-12-05T05:11:33;101454.41;;;6.25;65.61
30073;BME280;16897;52.422;13.678;2022-12-05T05:15:36;101464.75;;;6.25;65.66
30073;BME280;16897;52.422;13.678;2022-12-05T05:19:37;101471.47;;;6.34;65.58
30073;BME280;16897;52.422;13.678;2022-12-05T05:23:39;101472.28;;;6.36;65.68
30073;BME280;16897;52.422;13.678;2022-12-05T05:27:41;101462.81;;;6.33;65.45
30073;BME280;16897;52.422;13.678;2022-12-05T05:31:43;101464.53;;;6.34;65.48
30073;BME280;16897;52.422;13.678;2022-12-05T05:35:45;101474.06;;;6.34;65.65
30073;BME280;16897;52.422;13.678;2022-12-05T05:39:47;101457.84;;;6.26;65.62
30073;BME280;16897;52.422;13.678;2022-12-05T05:43:50;101468.94;;;6.31;65.55
30073;BME280;16897;52.422;13.678;2022-12-05T05:47:52;101468.00;;;6.33;65.44
30073;BME280;16897;52.422;13.678;2022-12-05T05:51:54;101455.25;;;6.26;65.54
30073;BME280;16897;52.422;13.678;2022-12-05T05:55:56;101471.53;;;6.31;65.67
30073;BME280;16897;52.422;13.678;2022-12-05T05:59:58;101456.22;;;6.22;65.60
30073;BME280;16897;52.422;13.678;2022-12-05T06:04:00;101475.78;;;6.35;65.56
30073;BME280;16897;52.422;13.678;2022-12-05T06:08:05;101472.34;;;6.33;65.64
30073;BME280;16897;52.422;13.678;2022-12-05T06:12:07;101462.16;;;6.27;65.50
30073;BME280;16897;52.422;13.678;2022-12-05T06:16:11;101434.09;;;6.08;65.46
30073;BME280;16897;52.422;13.678;2022-12-05T06:20:13;101468.09;;;6.30;65.51
30073;BME280;16897;52.422;13.678;2022-12-05T06:24:16;101481.84;;;6.34;65.61
30073;BME280;16897;52.422;13.678;2022-12-05T06:28:20;101478.41;;;6.33;65.67
30073;BME280;16897;52.422;13.678;2022-12-05T06:32:22;101479.28;;;6.32;65.47
30073;BME280;16897;52.422;13.678;2022-12-05T06:36:24;101429.94;;;6.01;65.65
30073;BME280;16897;52.422;13.678;2022-12-05T06:40:27;101489.53;;;6.37;65.55
30073;BME280;16897;52.422;13.678;2022-12-05T06:44:29;101494.72;;;6.37;65.51
30073;BME280;16897;52.422;13.678;2022-12-05T06:48:31;101476.00;;;6.26;65.66
30073;BME280;16897;52.422;13.678;2022-12-05T06:52:33;101488.03;;;6.28;65.67
30073;BME280;16897;52.422;13.678;2022-12-05T06:56:34;101505.09;;;6.37;65.74
30073;BME280;16897;52.422;13.678;2022-12-05T07:00:36;101505.09;;;6.37;65.68
30073;BME280;16897;52.422;13.678;2022-12-05T07:04:56;101505.97;;;6.37;65.69
30073;BME280;16897;52.422;13.678;2022-12-05T07:08:58;101493.19;;;6.30;65.74
30073;BME280;16897;52.422;13.678;2022-12-05T07:12:59;101473.63;;;6.16;65.48
30073;BME280;16897;52.422;13.678;2022-12-05T07:17:01;101521.47;;;6.39;65.48
30073;BME280;16897;52.422;13.678;2022-12-05T07:21:10;101498.50;;;6.24;65.56
30073;BME280;16897;52.422;13.678;2022-12-05T07:25:13;101507.97;;;6.26;65.64
30073;BME280;16897;52.422;13.678;2022-12-05T07:29:15;101517.28;;;6.35;65.66
30073;BME280;16897;52.422;13.678;2022-12-05T07:33:17;101497.66;;;6.23;65.62
30073;BME280;16897;52.422;13.678;2022-12-05T07:37:18;101493.41;;;6.20;65.51
30073;BME280;16897;52.422;13.678;2022-12-05T07:41:29;101506.25;;;6.25;65.48
30073;BME280;16897;52.422;13.678;2022-12-05T07:45:33;101510.63;;;6.23;65.48
30073;BME280;16897;52.422;13.678;2022-12-05T07:49:35;101470.50;;;6.02;65.64
30073;BME280;16897;52.422;13.678;2022-12-05T07:53:38;101498.59;;;6.20;65.70
30073;BME280;16897;52.422;13.678;2022-12-05T07:57:42;101468.66;;;6.07;65.52
30073;BME280;16897;52.422;13.678;2022-12-05T08:01:44;101513.84;;;6.33;65.58
30073;BME280;16897;52.422;13.678;2022-12-05T08:05:45;101519.91;;;6.33;65.60
30073;BME280;16897;52.422;13.678;2022-12-05T08:09:47;101513.88;;;6.31;65.39
30073;BME280;16897;52.422;13.678;2022-12-05T08:13:49;101528.44;;;6.37;65.55
30073;BME280;16897;52.422;13.678;2022-12-05T08:17:51;101523.41;;;6.31;65.42
30073;BME280;16897;52.422;13.678;2022-12-05T08:21:56;101527.69;;;6.32;65.50
30073;BME280;16897;52.422;13.678;2022-12-05T08:26:14;101509.13;;;6.13;65.61
30073;BME280;16897;52.422;13.678;2022-12-05T08:30:17;101529.59;;;6.27;65.50
30073;BME280;16897;52.422;13.678;2022-12-05T08:34:19;101521.91;;;6.22;65.60
30073;BME280;16897;52.422;13.678;2022-12-05T08:38:21;101530.44;;;6.26;65.61
30073;BME280;16897;52.422;13.678;2022-12-05T08:42:23;101522.75;;;6.23;65.71
30073;BME280;16897;52.422;13.678;2022-12-05T08:46:25;101517.63;;;6.19;65.51
30073;BME280;16897;52.422;13.678;2022-12-05T08:50:38;101526.09;;;6.26;65.77
30073;BME280;16897;52.422;13.678;2022-12-05T08:54:39;101520.19;;;6.21;65.75
30073;BME280;16897;52.422;13.678;2022-12-05T08:58:41;101527.78;;;6.29;65.62
30073;BME280;16897;52.422;13.678;2022-12-05T09:02:43;101519.25;;;6.24;65.56
30073;BME280;16897;52.422;13.678;2022-12-05T09:06:45;101524.41;;;6.27;65.56
30073;BME280;16897;52.422;13.678;2022-12-05T09:10:47;101506.44;;;6.19;65.71
30073;BME280;16897;52.422;13.678;2022-12-05T09:14:48;101519.25;;;6.24;65.56
30073;BME280;16897;52.422;13.678;2022-12-05T09:18:51;101521.97;;;6.19;65.56
30073;BME280;16897;52.422;13.678;2022-12-05T09:22:53;101522.72;;;6.24;65.78
30073;BME280;16897;52.422;13.678;2022-12-05T09:26:55;101510.81;;;6.15;65.72
30073;BME280;16897;52.422;13.678;2022-12-05T09:31:06;101499.66;;;6.12;65.58
30073;BME280;16897;52.422;13.678;2022-12-05T09:35:09;101508.13;;;6.20;65.71
30073;BME280;16897;52.422;13.678;2022-12-05T09:39:11;101525.16;;;6.30;65.57
30073;BME280;16897;52.422;13.678;2022-12-05T09:43:36;101510.69;;;6.22;65.87
30073;BME280;16897;52.422;13.678;2022-12-05T09:48:14;101519.16;;;6.28;65.65
30073;BME280;16897;52.422;13.678;2022-12-05T09:52:37;101520.81;;;6.31;65.70
30073;BME280;16897;52.422;13.678;2022-12-05T09:56:43;101527.66;;;6.35;65.57
30073;BME280;16897;52.422;13.678;2022-12-05T10:00:50;101515.59;;;6.32;65.71
30073;BME280;16897;52.422;13.678;2022-12-05T10:05:07;101509.59;;;6.30;65.75
30073;BME280;16897;52.422;13.678;2022-12-05T10:22:52;101497.63;;;6.25;65.80
30073;BME280;16897;52.422;13.678;2022-12-05T10:27:03;101494.88;;;6.31;65.75
30073;BME280;16897;52.422;13.678;2022-12-05T10:31:11;101494.88;;;6.31;65.86
30073;BME280;16897;52.422;13.678;2022-12-05T10:39:23;101494.66;;;6.40;65.70
30073;BME280;16897;52.422;13.678;2022-12-05T10:43:31;101479.44;;;6.26;65.61
30073;BME280;16897;52.422;13.678;2022-12-05T10:47:34;101487.84;;;6.36;65.96
30073;BME280;16897;52.422;13.678;2022-12-05T10:51:37;101492.88;;;6.42;65.91
30073;BME280;16897;52.422;13.678;2022-12-05T10:55:46;101499.59;;;6.49;65.92
30073;BME280;16897;52.422;13.678;2022-12-05T10:59:48;101468.84;;;6.35;65.90
30073;BME280;16897;52.422;13.678;2022-12-05T11:04:00;101494.34;;;6.52;65.66
30073;BME280;16897;52.422;13.678;2022-12-05T11:08:03;101487.28;;;6.57;65.90
30073;BME280;16897;52.422;13.678;2022-12-05T11:12:43;101492.47;;;6.57;65.70
30073;BME280;16897;52.422;13.678;2022-12-05T11:16:55;101481.38;;;6.52;65.57
30073;BME280;16897;52.422;13.678;2022-12-05T11:21:11;101488.22;;;6.55;65.64
30073;BME280;16897;52.422;13.678;2022-12-05T11:29:33;101485.50;;;6.59;65.73
30073;BME280;16897;52.422;13.678;2022-12-05T11:33:36;101492.38;;;6.60;65.91
30073;BME280;16897;52.422;13.678;2022-12-05T12:04:46;101460.56;;;6.54;65.75
30073;BME280;16897;52.422;13.678;2022-12-05T12:18:23;101470.66;;;6.64;65.92
30073;BME280;16897;52.422;13.678;2022-12-05T12:35:54;101459.22;;;6.72;65.68
30073;BME280;16897;52.422;13.678;2022-12-05T12:41:25;101463.47;;;6.74;65.96
30073;BME280;16897;52.422;13.678;2022-12-05T12:45:50;101460.84;;;6.76;65.70
30073;BME280;16897;52.422;13.678;2022-12-05T12:50:20;101436.78;;;6.69;65.85
30073;BME280;16897;52.422;13.678;2022-12-05T13:03:51;101438.31;;;6.78;65.80
30073;BME280;16897;52.422;13.678;2022-12-05T13:12:23;101423.78;;;6.71;65.74
30073;BME280;16897;52.422;13.678;2022-12-05T13:16:38;101436.56;;;6.77;65.86
30073;BME280;16897;52.422;13.678;2022-12-05T13:20:41;101419.31;;;6.76;65.70
30073;BME280;16897;52.422;13.678;2022-12-05T13:24:45;101425.25;;;6.79;65.81
30073;BME280;16897;52.422;13.678;2022-12-05T13:28:57;101423.59;;;6.77;65.97
30073;BME280;16897;52.422;13.678;2022-12-05T13:33:07;101429.59;;;6.79;65.89
30073;BME280;16897;52.422;13.678;2022-12-05T13:37:25;101433.03;;;6.81;65.70
30073;BME280;16897;52.422;13.678;2022-12-05T13:41:53;101414.28;;;6.70;65.94
30073;BME280;16897;52.422;13.678;2022-12-05T13:46:31;101414.16;;;6.74;65.87
30073;BME280;16897;52.422;13.678;2022-12-05T13:55:02;101438.06;;;6.85;65.71
30073;BME280;16897;52.422;13.678;2022-12-05T13:59:11;101439.59;;;6.93;66.02
30073;BME280;16897;52.422;13.678;2022-12-05T14:07:50;101440.31;;;6.98;65.83
30073;BME280;16897;52.422;13.678;2022-12-05T14:25:21;101454.97;;;7.00;65.94
30073;BME280;16897;52.422;13.678;2022-12-05T14:34:26;101427.47;;;6.93;65.81
30073;BME280;16897;52.422;13.678;2022-12-05T14:38:30;101441.06;;;7.01;65.95
30073;BME280;16897;52.422;13.678;2022-12-05T14:46:55;101442.72;;;7.04;65.80
30073;BME280;16897;52.422;13.678;2022-12-05T14:51:00;101423.06;;;6.97;65.98
30073;BME280;16897;52.422;13.678;2022-12-05T14:55:11;101449.50;;;7.09;65.80
30073;BME280;16897;52.422;13.678;2022-12-05T14:59:43;101429.75;;;7.04;65.94
30073;BME280;16897;52.422;13.678;2022-12-05T15:08:13;101437.28;;;7.13;65.78
30073;BME280;16897;52.422;13.678;2022-12-05T15:12:38;101431.47;;;7.05;65.68
30073;BME280;16897;52.422;13.678;2022-12-05T15:16:43;101444.19;;;7.13;66.01
30073;BME280;16897;52.422;13.678;2022-12-05T15:21:08;101441.69;;;7.09;65.81
30073;BME280;16897;52.422;13.678;2022-12-05T15:25:30;101433.16;;;7.06;65.80
30073;BME280;16897;52.422;13.678;2022-12-05T15:29:32;101444.19;;;7.13;66.05
30073;BME280;16897;52.422;13.678;2022-12-05T15:33:36;101444.19;;;7.13;65.84
30073;BME280;16897;52.422;13.678;2022-12-05T15:37:56;101457.06;;;7.17;65.90
30073;BME280;16897;52.422;13.678;2022-12-05T15:41:58;101468.22;;;7.21;65.78
30073;BME280;16897;52.422;13.678;2022-12-05T15:46:21;101443.56;;;7.04;65.89
30073;BME280;16897;52.422;13.678;2022-12-05T15:50:29;101465.56;;;7.22;65.78
30073;BME280;16897;52.422;13.678;2022-12-05T15:54:34;101453.53;;;7.20;65.87
30073;BME280;16897;52.422;13.678;2022-12-05T15:58:50;101458.69;;;7.21;65.73
30073;BME280;16897;52.422;13.678;2022-12-05T16:03:15;101436.59;;;7.06;65.86
30073;BME280;16897;52.422;13.678;2022-12-05T16:07:19;101458.69;;;7.21;65.87
30073;BME280;16897;52.422;13.678;2022-12-05T16:11:22;101460.47;;;7.19;65.86
30073;BME280;16897;52.422;13.678;2022-12-05T16:15:25;101472.41;;;7.26;65.89
30073;BME280;16897;52.422;13.678;2022-12-05T16:19:29;101448.34;;;7.20;65.96
30073;BME280;16897;52.422;13.678;2022-12-05T16:23:32;101445.72;;;7.21;65.67
30073;BME280;16897;52.422;13.678;2022-12-05T16:27:35;101415.94;;;7.02;65.75
30073;BME280;16897;52.422;13.678;2022-12-05T16:31:38;101440.72;;;7.14;65.83
30073;BME280;16897;52.422;13.678;2022-12-05T16:35:42;101461.13;;;7.26;65.88
30073;BME280;16897;52.422;13.678;2022-12-05T16:39:44;101443.09;;;7.21;65.82
30073;BME280;16897;52.422;13.678;2022-12-05T16:43:46;101426.84;;;7.15;65.85
30073;BME280;16897;52.422;13.678;2022-12-05T16:47:55;101451.53;;;7.29;65.94
30073;BME280;16897;52.422;13.678;2022-12-05T16:52:11;101439.50;;;7.25;65.77
30073;BME280;16897;52.422;13.678;2022-12-05T16:56:19;101442.78;;;7.32;65.91
30073;BME280;16897;52.422;13.678;2022-12-05T17:00:22;101430.78;;;7.28;65.90
30073;BME280;16897;52.422;13.678;2022-12-05T17:04:24;101432.56;;;7.26;65.84
30073;BME280;16897;52.422;13.678;2022-12-05T17:08:26;101441.78;;;7.36;65.73
30073;BME280;16897;52.422;13.678;2022-12-05T17:12:28;101437.53;;;7.34;65.81
30073;BME280;16897;52.422;13.678;2022-12-05T17:16:30;101443.50;;;7.37;65.88
30073;BME280;16897;52.422;13.678;2022-12-05T17:20:31;101426.41;;;7.28;65.84
30073;BME280;16897;52.422;13.678;2022-12-05T17:24:33;101430.78;;;7.28;65.80
30073;BME280;16897;52.422;13.678;2022-12-05T17:28:34;101446.97;;;7.36;65.98
30073;BME280;16897;52.422;13.678;2022-12-05T17:32:36;101427.22;;;7.30;66.04
30073;BME280;16897;52.422;13.678;2022-12-05T17:36:38;101442.53;;;7.40;65.86
30073;BME280;16897;52.422;13.678;2022-12-05T17:40:39;101393.97;;;7.14;65.79
30073;BME280;16897;52.422;13.678;2022-12-05T17:44:41;101423.81;;;7.28;66.02
30073;BME280;16897;52.422;13.678;2022-12-05T17:48:43;101441.69;;;7.39;65.73
30073;BME280;16897;52.422;13.678;2022-12-05T17:52:46;101435.72;;;7.37;65.75
30073;BME280;16897;52.422;13.678;2022-12-05T17:56:48;101451.09;;;7.43;66.01
30073;BME280;16897;52.422;13.678;2022-12-05T18:00:50;101443.25;;;7.45;66.05
30073;BME280;16897;52.422;13.678;2022-12-05T18:04:52;101418.53;;;7.31;65.93
30073;BME280;16897;52.422;13.678;2022-12-05T18:08:54;101445.00;;;7.44;65.87
30073;BME280;16897;52.422;13.678;2022-12-05T18:12:56;101436.47;;;7.41;66.05
30073;BME280;16897;52.422;13.678;2022-12-05T18:16:57;101418.59;;;7.30;65.98
30073;BME280;16897;52.422;13.678;2022-12-05T18:21:06;101454.44;;;7.47;65.83
30073;BME280;16897;52.422;13.678;2022-12-05T18:25:09;101442.25;;;7.49;65.80
30073;BME280;16897;52.422;13.678;2022-12-05T18:29:11;101451.75;;;7.50;65.96
30073;BME280;16897;52.422;13.678;2022-12-05T18:33:12;101437.19;;;7.44;65.85
30073;BME280;16897;52.422;13.678;2022-12-05T18:37:14;101435.59;;;7.40;65.95
30073;BME280;16897;52.422;13.678;2022-12-05T18:41:16;101438.00;;;7.46;65.95
30073;BME280;16897;52.422;13.678;2022-12-05T18:45:18;101435.34;;;7.48;66.03
30073;BME280;16897;52.422;13.678;2022-12-05T18:49:20;101393.03;;;7.16;66.07
30073;BME280;16897;52.422;13.678;2022-12-05T18:53:21;101401.63;;;7.18;65.99
30073;BME280;16897;52.422;13.678;2022-12-05T18:57:23;101438.75;;;7.50;65.87
30073;BME280;16897;52.422;13.678;2022-12-05T19:01:27;101430.16;;;7.48;65.92
30073;BME280;16897;52.422;13.678;2022-12-05T19:05:30;101443.97;;;7.50;65.89
30073;BME280;16897;52.422;13.678;2022-12-05T19:09:32;101449.06;;;7.53;66.08
30073;BME280;16897;52.422;13.678;2022-12-05T19:13:34;101448.31;;;7.49;66.01
30073;BME280;16897;52.422;13.678;2022-12-05T19:17:36;101443.34;;;7.42;66.05
30073;BME280;16897;52.422;13.678;2022-12-05T19:21:39;101459.41;;;7.54;65.85
30073;BME280;16897;52.422;13.678;2022-12-05T19:25:40;101440.59;;;7.46;65.85
30073;BME280;16897;52.422;13.678;2022-12-05T19:29:43;101448.19;;;7.54;66.11
30073;BME280;16897;52.422;13.678;2022-12-05T19:33:48;101443.97;;;7.50;66.07
30073;BME280;16897;52.422;13.678;2022-12-05T19:37:50;101446.41;;;7.54;65.97
30073;BME280;16897;52.422;13.678;2022-12-05T19:41:52;101453.41;;;7.52;65.95
30073;BME280;16897;52.422;13.678;2022-12-05T19:45:57;101456.78;;;7.56;65.96
30073;BME280;16897;52.422;13.678;2022-12-05T19:49:58;101458.59;;;7.52;65.82
30073;BME280;16897;52.422;13.678;2022-12-05T19:54:02;101471.56;;;7.54;66.07
30073;BME280;16897;52.422;13.678;2022-12-05T19:58:05;101455.38;;;7.44;65.92
30073;BME280;16897;52.422;13.678;2022-12-05T20:02:06;101469.91;;;7.51;65.99
30073;BME280;16897;52.422;13.678;2022-12-05T20:06:09;101477.75;;;7.50;66.07
30073;BME280;16897;52.422;13.678;2022-12-05T20:10:11;101464.09;;;7.43;66.08
30073;BME280;16897;52.422;13.678;2022-12-05T20:14:13;101465.84;;;7.43;66.00
30073;BME280;16897;52.422;13.678;2022-12-05T20:18:15;101453.94;;;7.36;66.06
30073;BME280;16897;52.422;13.678;2022-12-05T20:22:17;101476.06;;;7.49;65.90
30073;BME280;16897;52.422;13.678;2022-12-05T20:26:29;101473.69;;;7.41;65.98
30073;BME280;16897;52.422;13.678;2022-12-05T20:30:32;101470.97;;;7.44;65.98
30073;BME280;16897;52.422;13.678;2022-12-05T20:34:34;101463.47;;;7.35;65.94
30073;BME280;16897;52.422;13.678;2022-12-05T20:38:36;101478.84;;;7.43;65.91
30073;BME280;16897;52.422;13.678;2022-12-05T20:42:37;101477.97;;;7.42;66.07
30073;BME280;16897;52.422;13.678;2022-12-05T20:46:39;101479.69;;;7.43;66.00
30073;BME280;16897;52.422;13.678;2022-12-05T20:50:42;101459.16;;;7.34;65.92
30073;BME280;16897;52.422;13.678;2022-12-05T20:54:43;101461.81;;;7.32;65.87
30073;BME280;16897;52.422;13.678;2022-12-05T20:58:49;101456.00;;;7.24;65.89
30073;BME280;16897;52.422;13.678;2022-12-05T21:02:51;101454.25;;;7.25;66.02
30073;BME280;16897;52.422;13.678;2022-12-05T21:06:52;101461.94;;;7.28;65.81
30073;BME280;16897;52.422;13.678;2022-12-05T21:10:55;101468.78;;;7.30;65.77
30073;BME280;16897;52.422;13.678;2022-12-05T21:14:57;101460.16;;;7.30;65.80
30073;BME280;16897;52.422;13.678;2022-12-05T21:18:59;101467.13;;;7.28;65.94
30073;BME280;16897;52.422;13.678;2022-12-05T21:23:01;101469.84;;;7.25;65.96
30073;BME280;16897;52.422;13.678;2022-12-05T21:27:06;101449.38;;;7.14;65.79
30073;BME280;16897;52.422;13.678;2022-12-05T21:31:14;101455.38;;;7.16;65.70
30073;BME280;16897;52.422;13.678;2022-12-05T21:35:16;101452.72;;;7.18;65.79
30073;BME280;16897;52.422;13.678;2022-12-05T21:39:18;101440.72;;;7.14;65.77
30073;BME280;16897;52.422;13.678;2022-12-05T21:43:19;101411.88;;;6.93;65.77
30073;BME280;16897;52.422;13.678;2022-12-05T21:47:21;101419.59;;;6.96;65.87
30073;BME280;16897;52.422;13.678;2022-12-05T21:51:23;101444.38;;;7.06;65.87
30073;BME280;16897;52.422;13.678;2022-12-05T21:55:24;101440.25;;;6.99;65.71
30073;BME280;16897;52.422;13.678;2022-12-05T21:59:26;101399.50;;;6.72;65.87
30073;BME280;16897;52.422;13.678;2022-12-05T22:03:29;101453.25;;;6.99;65.77
30073;BME280;16897;52.422;13.678;2022-12-05T22:07:30;101448.13;;;6.96;65.74
30073;BME280;16897;52.422;13.678;2022-12-05T22:11:32;101450.72;;;6.98;65.79
30073;BME280;16897;52.422;13.678;2022-12-05T22:15:34;101442.94;;;6.96;65.81
30073;BME280;16897;52.422;13.678;2022-12-05T22:19:35;101453.31;;;6.98;65.81
30073;BME280;16897;52.422;13.678;2022-12-05T22:23:37;101438.03;;;6.87;65.77
30073;BME280;16897;52.422;13.678;2022-12-05T22:27:39;101436.34;;;6.86;65.92
30073;BME280;16897;52.422;13.678;2022-12-05T22:31:41;101427.84;;;6.81;65.83
30073;BME280;16897;52.422;13.678;2022-12-05T22:35:47;101420.06;;;6.79;65.85
30073;BME280;16897;52.422;13.678;2022-12-05T22:39:50;101429.53;;;6.80;65.89
30073;BME280;16897;52.422;13.678;2022-12-05T22:43:57;101422.53;;;6.84;65.75
30073;BME280;16897;52.422;13.678;2022-12-05T22:47:59;101425.03;;;6.89;65.77
30073;BME280;16897;52.422;13.678;2022-12-05T22:52:01;101407.84;;;6.83;65.82
30073;BME280;16897;52.422;13.678;2022-12-05T22:56:10;101364.50;;;6.55;65.83
30073;BME280;16897;52.422;13.678;2022-12-05T23:00:12;101384.84;;;6.71;65.89
30073;BME280;16897;52.422;13.678;2022-12-05T23:04:14;101404.41;;;6.82;65.81
30073;BME280;16897;52.422;13.678;2022-12-05T23:08:16;101396.72;;;6.79;65.80
30073;BME280;16897;52.422;13.678;2022-12-05T23:12:18;101368.69;;;6.61;65.71
30073;BME280;16897;52.422;13.678;2022-12-05T23:16:23;101377.94;;;6.70;65.73
30073;BME280;16897;52.422;13.678;2022-12-05T23:20:26;101381.34;;;6.72;65.85
30073;BME280;16897;52.422;13.678;2022-12-05T23:24:28;101395.16;;;6.74;65.90
30073;BME280;16897;52.422;13.678;2022-12-05T23:28:30;101401.09;;;6.77;65.75
30073;BME280;16897;52.422;13.678;2022-12-05T23:32:32;101398.47;;;6.79;65.95
30073;BME280;16897;52.422;13.678;2022-12-05T23:36:34;101398.56;;;6.76;65.83
30073;BME280;16897;52.422;13.678;2022-12-05T23:40:35;101380.50;;;6.71;65.70
30073;BME280;16897;52.422;13.678;2022-12-05T23:44:37;101365.97;;;6.65;65.76
30073;BME280;16897;52.422;13.678;2022-12-05T23:48:39;101356.50;;;6.63;65.84
30073;BME280;16897;52.422;13.678;2022-12-05T23:52:41;101365.97;;;6.65;65.77
30073;BME280;16897;52.422;13.678;2022-12-05T23:56:42;101363.56;;;6.59;65.88
